Cape Sorell, Australia
Current Conditions -  °F | °C
As of 5:00 AM on Thursday 29 Jan 2015 (Local Time) from YMLT Reporting Station
Broken Clouds Broken Clouds  
Wind Chill: 43°   Ceiling: 5700
Heat Index: 48°   Visibility: 6mi
Dew Point: 43°   Wind: 14mph
Humidity: 82%   Direction: 160°SSE
Pressure: 30.18"   Gusts: NA
Location:  42.2°S, 145.17°E
Report Text: YMLT 281800Z AUTO 16012KT 9999 // BKN057 09/06 Q1022
Loading
Personal Weather Stations






























Interactive Weather Map New forecast layout! Learn more

10-Day Weather Forecast

Advertisements
Track Severe Weather on mobile